createdAt,value
2018-08-22T00:00:05.712Z,4.33
2018-08-22T00:02:34.187Z,4.30
2018-08-22T00:05:02.333Z,4.77
2018-08-22T00:07:30.623Z,5.27
2018-08-22T00:09:58.975Z,4.80
2018-08-22T00:12:27.679Z,5.90
2018-08-22T00:14:55.824Z,5.80
2018-08-22T00:17:24.279Z,5.77
2018-08-22T00:19:52.424Z,6.33
2018-08-22T00:22:20.653Z,7.23
2018-08-22T00:24:49.001Z,5.83
2018-08-22T00:27:17.631Z,6.85
2018-08-22T00:29:45.925Z,6.30
2018-08-22T00:32:14.703Z,5.95
2018-08-22T00:34:42.849Z,6.80
2018-08-22T00:37:11.274Z,6.28
2018-08-22T00:39:39.536Z,6.33
2018-08-22T00:42:07.684Z,6.17
2018-08-22T00:44:35.940Z,5.93
2018-08-22T00:47:05.091Z,5.90
2018-08-22T00:49:33.243Z,6.27
2018-08-22T00:52:01.615Z,6.47
2018-08-22T00:54:29.980Z,6.53
2018-08-22T00:56:58.391Z,6.87
2018-08-22T00:59:26.773Z,6.37
2018-08-22T01:01:55.132Z,6.47
2018-08-22T01:04:30.022Z,6.30
2018-08-22T01:06:58.360Z,5.63
2018-08-22T01:09:26.482Z,6.87
2018-08-22T01:11:54.915Z,5.97
2018-08-22T01:14:23.329Z,5.83
2018-08-22T01:16:57.956Z,6.30
2018-08-22T01:19:26.207Z,7.10
2018-08-22T01:21:54.910Z,6.33
2018-08-22T01:24:24.013Z,6.58
2018-08-22T01:26:52.988Z,5.77
2018-08-22T01:29:21.459Z,6.33
2018-08-22T01:31:49.989Z,6.37
2018-08-22T01:34:18.460Z,6.22
2018-08-22T01:36:46.596Z,6.23
2018-08-22T01:39:15.023Z,5.85
2018-08-22T01:41:43.357Z,6.90
2018-08-22T01:44:11.529Z,6.40
2018-08-22T01:46:39.671Z,7.07
2018-08-22T01:49:08.336Z,7.00
2018-08-22T01:51:36.477Z,6.77
2018-08-22T01:54:05.409Z,6.90
2018-08-22T01:56:33.957Z,6.80
2018-08-22T01:59:02.430Z,6.47
2018-08-22T02:01:30.567Z,6.33
2018-08-22T02:03:58.709Z,6.50
2018-08-22T02:06:27.052Z,6.97
2018-08-22T02:08:55.551Z,5.77
2018-08-22T02:11:23.744Z,7.00
2018-08-22T02:13:52.267Z,6.90
2018-08-22T02:16:20.448Z,6.63
2018-08-22T02:18:48.580Z,7.27
2018-08-22T02:21:17.185Z,6.25
2018-08-22T02:23:45.316Z,6.57
2018-08-22T02:26:13.445Z,6.83
2018-08-22T02:28:41.584Z,7.03
2018-08-22T02:31:10.001Z,6.77
2018-08-22T02:33:38.136Z,7.00
2018-08-22T02:36:06.553Z,6.50
2018-08-22T02:38:34.692Z,7.60
2018-08-22T02:41:02.893Z,7.43
2018-08-22T02:43:31.053Z,6.37
2018-08-22T02:45:59.213Z,6.70
2018-08-22T02:48:27.353Z,7.20
2018-08-22T02:50:55.524Z,10.87
2018-08-22T02:53:24.150Z,13.70
2018-08-22T02:55:52.292Z,13.03
2018-08-22T02:58:20.537Z,10.47
2018-08-22T03:00:49.109Z,8.97
2018-08-22T03:03:17.543Z,8.23
2018-08-22T03:05:45.672Z,7.57
2018-08-22T03:08:14.109Z,7.33
2018-08-22T03:10:42.453Z,7.67
2018-08-22T03:13:10.882Z,6.70
2018-08-22T03:15:39.041Z,6.50
2018-08-22T03:18:07.333Z,7.40
2018-08-22T03:20:35.475Z,7.07
2018-08-22T03:23:03.802Z,6.67
2018-08-22T03:25:31.937Z,7.50
2018-08-22T03:28:00.081Z,6.47
2018-08-22T03:30:28.211Z,6.70
2018-08-22T03:32:56.533Z,7.13
2018-08-22T03:35:25.013Z,7.03
2018-08-22T03:37:53.154Z,7.23
2018-08-22T03:40:21.864Z,7.27
2018-08-22T03:42:50.413Z,8.40
2018-08-22T03:45:18.550Z,7.00
2018-08-22T03:47:46.705Z,6.87
2018-08-22T03:50:15.105Z,6.00
2018-08-22T03:52:43.428Z,6.20
2018-08-22T03:55:11.561Z,7.13
2018-08-22T03:57:40.926Z,6.53
2018-08-22T04:00:09.822Z,8.83
2018-08-22T04:02:37.968Z,7.17
2018-08-22T04:05:06.721Z,6.37
2018-08-22T04:07:34.884Z,7.27
2018-08-22T04:10:03.377Z,6.20
2018-08-22T04:12:31.518Z,6.17
2018-08-22T04:15:00.143Z,6.67
2018-08-22T04:17:38.613Z,7.20
2018-08-22T04:20:08.697Z,8.63
2018-08-22T04:22:38.576Z,7.47
2018-08-22T04:25:08.089Z,6.33
2018-08-22T04:27:37.246Z,6.35
2018-08-22T04:30:06.754Z,7.08
2018-08-22T04:32:35.236Z,6.63
2018-08-22T04:35:03.368Z,5.43
2018-08-22T04:37:31.500Z,5.50
2018-08-22T04:40:00.157Z,5.47
2018-08-22T04:42:28.294Z,4.63
2018-08-22T04:44:56.850Z,4.40
2018-08-22T04:47:25.197Z,4.40
2018-08-22T04:49:53.905Z,5.00
2018-08-22T04:52:22.377Z,4.87
2018-08-22T04:54:50.520Z,4.90
2018-08-22T04:57:19.335Z,7.03
2018-08-22T04:59:47.497Z,5.30
2018-08-22T05:02:16.009Z,5.60
2018-08-22T05:04:44.145Z,5.40
2018-08-22T05:07:12.573Z,5.57
2018-08-22T05:09:41.041Z,7.17
2018-08-22T05:12:09.280Z,10.43
2018-08-22T05:14:37.440Z,7.57
2018-08-22T05:17:06.052Z,6.40
2018-08-22T05:19:34.193Z,6.00
2018-08-22T05:22:02.354Z,6.63
2018-08-22T05:24:30.510Z,6.97
2018-08-22T05:26:59.022Z,6.43
2018-08-22T05:29:27.172Z,7.73
2018-08-22T05:31:58.058Z,8.23
2018-08-22T05:34:26.345Z,7.30
2018-08-22T05:36:54.509Z,7.10
2018-08-22T05:39:22.945Z,9.03
2018-08-22T05:41:51.574Z,8.13
2018-08-22T05:44:19.718Z,7.30
2018-08-22T05:46:48.273Z,8.37
2018-08-22T05:49:16.713Z,8.10
2018-08-22T05:51:44.991Z,8.60
2018-08-22T05:54:13.435Z,7.08
2018-08-22T05:56:41.909Z,7.90
2018-08-22T05:59:10.471Z,7.97
2018-08-22T06:01:38.637Z,8.83
2018-08-22T06:04:07.430Z,9.73
2018-08-22T06:06:35.582Z,8.67
2018-08-22T06:09:04.437Z,7.37
2018-08-22T06:11:33.034Z,7.90
2018-08-22T06:14:01.206Z,8.53
2018-08-22T06:16:29.360Z,8.27
2018-08-22T06:18:57.885Z,6.80
2018-08-22T06:21:26.547Z,8.57
2018-08-22T06:23:55.267Z,9.97
2018-08-22T06:26:23.857Z,9.57
2018-08-22T06:28:52.005Z,9.73
2018-08-22T06:31:20.489Z,9.73
2018-08-22T06:33:48.688Z,9.43
2018-08-22T06:36:16.862Z,8.37
2018-08-22T06:38:45.421Z,9.63
2018-08-22T06:41:13.729Z,9.17
2018-08-22T06:43:41.894Z,9.07
2018-08-22T06:46:10.392Z,10.13
2018-08-22T06:48:38.574Z,8.87
2018-08-22T06:51:06.899Z,9.30
2018-08-22T06:53:35.412Z,9.33
2018-08-22T06:56:03.564Z,8.40
2018-08-22T06:58:32.041Z,8.97
2018-08-22T07:01:00.240Z,8.90
2018-08-22T07:03:28.385Z,8.27
2018-08-22T07:05:56.692Z,8.07
2018-08-22T07:08:25.054Z,8.57
2018-08-22T07:10:53.676Z,8.13
2018-08-22T07:13:21.830Z,6.87
2018-08-22T07:15:50.621Z,8.53
2018-08-22T07:18:19.409Z,7.50
2018-08-22T07:20:47.912Z,7.13
2018-08-22T07:23:17.271Z,6.70
2018-08-22T07:25:45.557Z,8.57
2018-08-22T07:28:13.707Z,8.07
2018-08-22T07:30:41.857Z,7.47
2018-08-22T07:33:10.373Z,7.77
2018-08-22T07:35:38.781Z,8.17
2018-08-22T07:38:07.468Z,8.80
2018-08-22T07:40:36.213Z,8.30
2018-08-22T07:43:06.169Z,8.05
2018-08-22T07:45:34.312Z,6.80
2018-08-22T07:48:02.821Z,6.67
2018-08-22T07:50:31.762Z,5.90
2018-08-22T07:53:03.861Z,7.03
2018-08-22T07:55:36.293Z,6.83
2018-08-22T07:58:06.683Z,5.80
2018-08-22T08:00:35.018Z,5.20
2018-08-22T08:03:03.620Z,4.87
2018-08-22T08:05:32.313Z,5.17
2018-08-22T08:08:00.637Z,5.20
2018-08-22T08:10:33.894Z,5.00
2018-08-22T08:13:03.364Z,4.33
2018-08-22T08:15:31.521Z,4.97
2018-08-22T08:18:00.059Z,4.43
2018-08-22T08:20:28.325Z,4.13
2018-08-22T08:22:56.473Z,4.20
2018-08-22T08:25:25.560Z,3.80
2018-08-22T08:27:54.110Z,4.20
2018-08-22T08:30:22.437Z,4.03
2018-08-22T08:32:50.597Z,4.63
2018-08-22T08:35:19.005Z,4.30
2018-08-22T08:37:47.159Z,5.23
2018-08-22T08:40:15.512Z,5.10
2018-08-22T08:42:43.693Z,5.80
2018-08-22T08:45:12.526Z,5.37
2018-08-22T08:47:40.768Z,5.80
2018-08-22T08:50:09.911Z,4.90
2018-08-22T08:52:38.229Z,5.10
2018-08-22T08:55:06.519Z,5.40
2018-08-22T08:57:34.876Z,4.70
2018-08-22T09:00:03.610Z,5.60
2018-08-22T09:02:31.962Z,5.37
2018-08-22T09:05:00.669Z,4.97
2018-08-22T09:07:28.981Z,5.23
2018-08-22T09:09:57.495Z,4.73
2018-08-22T09:12:25.797Z,4.77
2018-08-22T09:17:23.034Z,5.07
2018-08-22T09:19:51.333Z,4.07
2018-08-22T09:22:19.580Z,4.70
2018-08-22T09:24:48.156Z,5.80
2018-08-22T09:27:16.499Z,6.97
2018-08-22T09:29:44.655Z,5.30
2018-08-22T09:32:12.814Z,5.87
2018-08-22T09:34:41.077Z,4.83
2018-08-22T09:37:09.529Z,5.03
2018-08-22T09:39:37.729Z,5.63
2018-08-22T09:42:06.486Z,5.17
2018-08-22T09:44:34.797Z,5.37
2018-08-22T09:47:02.959Z,6.30
2018-08-22T09:49:31.210Z,6.30
2018-08-22T09:51:59.548Z,6.20
2018-08-22T09:54:27.739Z,5.83
2018-08-22T09:56:56.189Z,6.07
2018-08-22T09:59:24.616Z,5.43
2018-08-22T10:01:52.784Z,4.90
2018-08-22T10:04:21.242Z,5.62
2018-08-22T10:06:50.251Z,5.40
2018-08-22T10:09:24.318Z,5.75
2018-08-22T10:11:52.469Z,5.50
2018-08-22T10:14:20.815Z,5.63
2018-08-22T10:16:49.384Z,5.20
2018-08-22T10:19:17.539Z,5.70
2018-08-22T10:21:46.586Z,5.73
2018-08-22T10:24:15.513Z,6.90
2018-08-22T10:26:43.667Z,6.13
2018-08-22T10:29:11.806Z,6.17
2018-08-22T10:31:40.343Z,7.10
2018-08-22T10:34:09.636Z,7.90
2018-08-22T10:36:37.777Z,6.87
2018-08-22T10:39:08.621Z,6.70
2018-08-22T10:41:37.150Z,6.83
2018-08-22T10:44:06.111Z,6.83
2018-08-22T10:46:34.615Z,6.27
2018-08-22T10:49:03.281Z,7.10
2018-08-22T10:51:31.677Z,6.53
2018-08-22T10:54:00.124Z,7.80
2018-08-22T10:56:28.804Z,7.50
2018-08-22T10:58:56.962Z,6.67
2018-08-22T11:01:25.956Z,6.87
2018-08-22T11:03:54.189Z,7.43
2018-08-22T11:06:22.933Z,6.60
2018-08-22T11:08:51.601Z,6.70
2018-08-22T11:11:20.364Z,6.95
2018-08-22T11:13:48.533Z,7.40
2018-08-22T11:16:16.703Z,6.87
2018-08-22T11:18:45.679Z,6.53
2018-08-22T11:21:25.148Z,6.40
2018-08-22T11:24:04.716Z,7.20
2018-08-22T11:26:44.499Z,5.40
2018-08-22T11:29:24.321Z,6.08
2018-08-22T11:32:03.873Z,5.60
2018-08-22T11:34:42.380Z,7.23
2018-08-22T11:37:12.401Z,7.03
2018-08-22T11:39:42.308Z,6.03
2018-08-22T11:42:10.505Z,7.23
2018-08-22T11:44:39.377Z,6.33
2018-08-22T11:47:07.801Z,6.67
2018-08-22T11:49:36.053Z,6.20
2018-08-22T11:52:05.921Z,7.55
2018-08-22T11:54:34.322Z,9.27
2018-08-22T11:57:03.308Z,8.93
2018-08-22T11:59:32.141Z,7.10
2018-08-22T12:02:00.686Z,7.93
2018-08-22T12:04:29.333Z,6.60
2018-08-22T12:06:57.837Z,7.23
2018-08-22T12:09:26.630Z,7.83
2018-08-22T12:11:55.476Z,7.60
2018-08-22T12:14:23.990Z,8.03
2018-08-22T12:16:52.283Z,6.20
2018-08-22T12:19:21.264Z,6.80
2018-08-22T12:21:49.784Z,6.60
2018-08-22T12:24:18.970Z,6.97
2018-08-22T12:26:47.110Z,7.60
2018-08-22T12:29:15.603Z,8.23
2018-08-22T12:31:44.113Z,8.33
2018-08-22T12:34:12.245Z,7.30
2018-08-22T12:36:40.400Z,6.30
2018-08-22T12:39:09.533Z,8.83
2018-08-22T12:41:38.052Z,8.90
2018-08-22T12:44:06.818Z,8.23
2018-08-22T12:46:34.987Z,7.20
2018-08-22T12:49:04.236Z,8.77
2018-08-22T12:51:32.565Z,7.27
2018-08-22T12:54:01.403Z,6.83
2018-08-22T12:56:29.572Z,9.70
2018-08-22T12:58:57.744Z,8.17
2018-08-22T13:01:26.058Z,9.77
2018-08-22T13:03:54.215Z,7.57
2018-08-22T13:06:22.744Z,9.43
2018-08-22T13:08:51.253Z,10.30
2018-08-22T13:11:20.125Z,10.08
2018-08-22T13:13:48.968Z,9.63
2018-08-22T13:16:17.469Z,11.27
2018-08-22T13:18:45.621Z,9.23
2018-08-22T13:21:13.921Z,10.30
2018-08-22T13:23:42.073Z,9.00
2018-08-22T13:26:10.829Z,9.33
2018-08-22T13:28:39.004Z,10.37
2018-08-22T13:31:07.445Z,11.03
2018-08-22T13:33:35.758Z,10.03
2018-08-22T13:36:05.501Z,10.08
2018-08-22T13:38:34.142Z,9.13
2018-08-22T13:41:02.641Z,10.77
2018-08-22T13:43:30.811Z,10.27
2018-08-22T13:45:59.701Z,10.07
2018-08-22T13:48:28.160Z,11.33
2018-08-22T13:50:56.610Z,10.07
2018-08-22T13:53:25.804Z,10.78
2018-08-22T13:55:54.215Z,9.57
2018-08-22T13:58:22.879Z,9.47
2018-08-22T14:00:51.037Z,9.70
2018-08-22T14:03:19.312Z,10.57
2018-08-22T14:05:48.857Z,11.47
2018-08-22T14:08:17.298Z,11.85
2018-08-22T14:10:46.150Z,10.90
2018-08-22T14:13:14.765Z,10.65
2018-08-22T14:15:43.277Z,11.07
2018-08-22T14:18:11.860Z,9.87
2018-08-22T14:20:40.415Z,10.23
2018-08-22T14:23:09.158Z,14.67
2018-08-22T14:25:37.705Z,12.17
2018-08-22T14:28:06.735Z,10.97
2018-08-22T14:30:35.501Z,11.97
2018-08-22T14:33:03.662Z,12.97
2018-08-22T14:35:31.821Z,10.20
2018-08-22T14:38:00.007Z,11.60
2018-08-22T14:40:28.673Z,10.47
2018-08-22T14:42:56.905Z,11.40
2018-08-22T14:45:25.177Z,14.87
2018-08-22T14:47:54.250Z,13.97
2018-08-22T14:50:22.710Z,13.40
2018-08-22T14:52:50.872Z,11.63
2018-08-22T14:55:29.360Z,12.77
2018-08-22T14:57:57.536Z,11.87
2018-08-22T15:00:26.029Z,12.23
2018-08-22T15:02:54.648Z,13.83
2018-08-22T15:05:23.159Z,13.93
2018-08-22T15:07:51.801Z,15.73
2018-08-22T15:10:20.566Z,12.13
2018-08-22T15:12:48.920Z,12.03
2018-08-22T15:15:17.530Z,12.73
2018-08-22T15:17:46.002Z,13.23
2018-08-22T15:20:14.468Z,12.85
2018-08-22T15:22:43.275Z,14.07
2018-08-22T15:25:11.893Z,15.28
2018-08-22T15:27:40.050Z,13.40
2018-08-22T15:30:09.261Z,13.40
2018-08-22T15:32:38.015Z,14.00
2018-08-22T15:35:07.167Z,13.23
2018-08-22T15:37:35.573Z,12.97
2018-08-22T15:40:05.520Z,15.98
2018-08-22T15:42:34.646Z,13.13
2018-08-22T15:45:03.433Z,17.63
2018-08-22T15:47:31.584Z,13.20
2018-08-22T15:50:00.280Z,12.03
2018-08-22T15:52:28.806Z,14.33
2018-08-22T15:55:07.613Z,13.07
2018-08-22T15:57:51.110Z,15.43
2018-08-22T16:00:36.250Z,14.87
2018-08-22T16:03:06.686Z,13.47
2018-08-22T16:05:36.729Z,12.63
2018-08-22T16:08:07.071Z,12.17
2018-08-22T16:10:35.645Z,16.00
2018-08-22T16:13:04.008Z,16.60
2018-08-22T16:15:34.777Z,12.07
2018-08-22T16:18:05.663Z,15.10
2018-08-22T16:20:40.705Z,14.83
2018-08-22T16:23:09.610Z,11.93
2018-08-22T16:25:44.149Z,11.53
2018-08-22T16:28:12.981Z,15.72
2018-08-22T16:30:41.441Z,12.53
2018-08-22T16:33:10.221Z,14.50
2018-08-22T16:35:39.086Z,15.33
2018-08-22T16:38:10.229Z,13.50
2018-08-22T16:40:39.900Z,14.40
2018-08-22T16:43:08.428Z,14.10
2018-08-22T16:45:43.170Z,14.90
2018-08-22T16:48:12.748Z,14.20
2018-08-22T16:50:41.272Z,15.10
2018-08-22T16:53:09.581Z,12.33
2018-08-22T16:55:37.729Z,12.20
2018-08-22T16:58:06.712Z,14.23
2018-08-22T17:00:45.638Z,16.43
2018-08-22T17:03:13.784Z,16.42
2018-08-22T17:05:42.953Z,15.63
2018-08-22T17:08:11.597Z,13.28
2018-08-22T17:10:53.657Z,15.13
2018-08-22T17:13:28.396Z,14.50
2018-08-22T17:15:57.595Z,14.37
2018-08-22T17:18:26.982Z,14.70
2018-08-22T17:20:55.521Z,29.70
2018-08-22T17:23:24.214Z,19.27
2018-08-22T17:25:53.068Z,19.37
2018-08-22T17:28:28.579Z,20.93
2018-08-22T17:30:57.278Z,24.00
2018-08-22T17:33:31.820Z,17.47
2018-08-22T17:36:00.084Z,31.87
2018-08-22T17:38:28.306Z,30.27
2018-08-22T17:40:56.464Z,67.70
2018-08-22T17:43:24.846Z,54.07
2018-08-22T17:45:53.081Z,38.30
2018-08-22T17:48:22.140Z,30.20
2018-08-22T17:50:50.749Z,43.37
2018-08-22T17:53:18.955Z,27.17
2018-08-22T17:55:49.205Z,37.17
2018-08-22T17:58:17.688Z,24.50
2018-08-22T18:00:45.845Z,17.97
2018-08-22T18:03:14.178Z,19.90
2018-08-22T18:05:42.894Z,21.77
2018-08-22T18:08:11.698Z,19.73
2018-08-22T18:10:40.498Z,21.10
2018-08-22T18:13:10.463Z,22.37
2018-08-22T18:15:38.858Z,22.50
2018-08-22T18:18:08.233Z,19.50
2018-08-22T18:20:38.732Z,19.83
2018-08-22T18:23:07.625Z,20.83
2018-08-22T18:25:40.491Z,17.87
2018-08-22T18:28:09.796Z,27.50
2018-08-22T18:30:37.956Z,26.77
2018-08-22T18:33:06.444Z,21.67
2018-08-22T18:35:34.698Z,26.00
2018-08-22T18:38:02.876Z,21.93
2018-08-22T18:40:31.429Z,22.20
2018-08-22T18:43:01.828Z,26.33
2018-08-22T18:45:30.621Z,23.23
2018-08-22T18:48:16.038Z,29.13
2018-08-22T18:50:45.733Z,25.10
2018-08-22T18:53:15.587Z,26.73
2018-08-22T18:55:44.201Z,23.87
2018-08-22T18:58:12.653Z,25.57
2018-08-22T19:00:41.170Z,23.17
2018-08-22T19:03:09.332Z,26.83
2018-08-22T19:05:38.201Z,21.93
2018-08-22T19:08:10.416Z,27.30
2018-08-22T19:10:40.824Z,27.82
2018-08-22T19:13:11.856Z,27.03
2018-08-22T19:15:40.293Z,26.97
2018-08-22T19:18:09.764Z,30.10
2018-08-22T19:20:38.744Z,31.57
2018-08-22T19:23:07.477Z,28.27
2018-08-22T19:25:35.660Z,30.50
2018-08-22T19:28:06.053Z,31.25
2018-08-22T19:30:36.713Z,30.37
2018-08-22T19:33:09.916Z,32.03
2018-08-22T19:35:38.770Z,26.47
2018-08-22T19:38:07.632Z,28.67
2018-08-22T19:40:36.817Z,30.90
2018-08-22T19:43:06.625Z,29.10
2018-08-22T19:45:35.736Z,28.43
2018-08-22T19:48:03.893Z,31.00
2018-08-22T19:50:32.388Z,29.67
2018-08-22T19:53:00.563Z,29.70
2018-08-22T19:55:28.977Z,30.20
2018-08-22T19:57:57.825Z,31.47
2018-08-22T20:00:26.364Z,29.90
2018-08-22T20:02:55.457Z,30.30
2018-08-22T20:05:24.571Z,29.47
2018-08-22T20:07:52.741Z,28.40
2018-08-22T20:10:23.890Z,28.62
2018-08-22T20:12:54.888Z,27.83
2018-08-22T20:15:23.441Z,28.12
2018-08-22T20:17:54.767Z,28.63
2018-08-22T20:20:23.270Z,29.23
2018-08-22T20:22:53.217Z,31.83
2018-08-22T20:25:22.356Z,31.23
2018-08-22T20:27:50.530Z,31.50
2018-08-22T20:30:20.356Z,30.47
2018-08-22T20:32:58.585Z,30.67
2018-08-22T20:35:35.928Z,29.57
2018-08-22T20:38:06.552Z,32.33
2018-08-22T20:40:35.360Z,30.25
2018-08-22T20:43:03.544Z,28.67
2018-08-22T20:45:36.521Z,28.10
2018-08-22T20:48:08.661Z,27.60
2018-08-22T20:50:38.966Z,30.43
2018-08-22T20:53:09.049Z,28.00
2018-08-22T20:55:37.263Z,32.77
2018-08-22T20:58:06.262Z,32.97
2018-08-22T21:00:35.746Z,28.57
2018-08-22T21:03:04.323Z,31.03
2018-08-22T21:05:32.583Z,31.80
2018-08-22T21:08:00.899Z,30.00
2018-08-22T21:10:29.298Z,32.60
2018-08-22T21:12:57.685Z,29.90
2018-08-22T21:15:26.395Z,28.63
2018-08-22T21:18:01.243Z,27.47
2018-08-22T21:20:29.401Z,25.83
2018-08-22T21:22:58.115Z,27.47
2018-08-22T21:25:26.312Z,29.30
2018-08-22T21:27:54.987Z,28.50
2018-08-22T21:30:23.704Z,28.17
2018-08-22T21:32:52.688Z,26.37
2018-08-22T21:35:25.946Z,26.65
2018-08-22T21:37:58.964Z,26.43
2018-08-22T21:40:27.550Z,27.37
2018-08-22T21:42:55.717Z,27.97
2018-08-22T21:45:24.440Z,26.20
2018-08-22T21:48:08.142Z,26.13
2018-08-22T21:50:36.302Z,25.57
2018-08-22T21:53:05.375Z,26.00
2018-08-22T21:55:42.248Z,28.17
2018-08-22T21:58:11.872Z,26.30
2018-08-22T22:00:40.025Z,26.27
2018-08-22T22:03:10.296Z,27.73
2018-08-22T22:05:45.362Z,27.70
2018-08-22T22:08:13.913Z,25.90
2018-08-22T22:10:42.754Z,27.03
2018-08-22T22:13:11.989Z,26.57
2018-08-22T22:15:43.582Z,26.23
2018-08-22T22:18:12.071Z,25.60
2018-08-22T22:20:40.750Z,29.53
2018-08-22T22:23:09.317Z,28.42
2018-08-22T22:25:37.608Z,26.90
2018-08-22T22:28:06.275Z,29.80
2018-08-22T22:30:34.956Z,27.07
2018-08-22T22:33:03.284Z,23.70
2018-08-22T22:35:36.804Z,27.20
2018-08-22T22:38:08.702Z,29.40
2018-08-22T22:40:37.507Z,26.07
2018-08-22T22:43:10.557Z,28.37
2018-08-22T22:45:38.719Z,29.90
2018-08-22T22:48:07.525Z,27.87
2018-08-22T22:50:36.183Z,26.80
2018-08-22T22:53:06.257Z,29.87
2018-08-22T22:55:34.418Z,30.60
2018-08-22T22:58:03.640Z,31.33
2018-08-22T23:00:32.329Z,30.50
2018-08-22T23:03:07.116Z,28.73
2018-08-22T23:05:35.292Z,31.10
2018-08-22T23:08:03.693Z,27.17
2018-08-22T23:10:32.178Z,30.47
2018-08-22T23:13:00.697Z,28.83
2018-08-22T23:15:30.119Z,31.70
2018-08-22T23:17:59.405Z,31.53
2018-08-22T23:20:36.634Z,26.57
2018-08-22T23:23:22.084Z,28.40
2018-08-22T23:25:50.554Z,30.80
2018-08-22T23:28:19.034Z,29.82
2018-08-22T23:30:47.836Z,32.07
2018-08-22T23:33:16.226Z,30.90
2018-08-22T23:35:44.705Z,30.20
2018-08-22T23:38:18.656Z,30.85
2018-08-22T23:40:48.289Z,33.07
2018-08-22T23:43:16.817Z,30.47
2018-08-22T23:45:57.616Z,32.73
2018-08-22T23:48:31.385Z,29.30
2018-08-22T23:51:01.402Z,35.80
2018-08-22T23:53:37.088Z,31.23
2018-08-22T23:56:16.065Z,31.27
2018-08-22T23:58:45.657Z,30.10
